sensor_id;sensor_type;location;lat;lon;timestamp;pressure;altitude;pressure_sealevel;temperature;humidity
3917;BME280;1973;50.518;7.318;2023-06-10T00:00:07;100647.25;;;19.20;100.00
3917;BME280;1973;50.518;7.318;2023-06-10T00:02:34;100655.34;;;19.17;100.00
3917;BME280;1973;50.518;7.318;2023-06-10T00:05:01;100650.31;;;19.14;100.00
3917;BME280;1973;50.518;7.318;2023-06-10T00:07:28;100653.63;;;19.11;100.00
3917;BME280;1973;50.518;7.318;2023-06-10T00:09:54;100655.31;;;19.07;100.00
3917;BME280;1973;50.518;7.318;2023-06-10T00:12:21;100655.59;;;19.05;100.00
3917;BME280;1973;50.518;7.318;2023-06-10T00:14:48;100656.97;;;19.03;100.00
3917;BME280;1973;50.518;7.318;2023-06-10T00:17:16;100657.50;;;19.00;100.00
3917;BME280;1973;50.518;7.318;2023-06-10T00:19:43;100656.41;;;18.95;100.00
3917;BME280;1973;50.518;7.318;2023-06-10T00:22:10;100654.72;;;18.94;100.00
3917;BME280;1973;50.518;7.318;2023-06-10T00:24:37;100652.75;;;18.90;100.00
3917;BME280;1973;50.518;7.318;2023-06-10T00:27:04;100655.22;;;18.81;100.00
3917;BME280;1973;50.518;7.318;2023-06-10T00:29:31;100661.34;;;18.78;100.00
3917;BME280;1973;50.518;7.318;2023-06-10T00:31:58;100652.97;;;18.73;100.00
3917;BME280;1973;50.518;7.318;2023-06-10T00:34:24;100654.34;;;18.71;100.00
3917;BME280;1973;50.518;7.318;2023-06-10T00:36:51;100655.16;;;18.66;100.00
3917;BME280;1973;50.518;7.318;2023-06-10T00:39:17;100668.00;;;18.62;100.00
3917;BME280;1973;50.518;7.318;2023-06-10T00:41:44;100659.34;;;18.59;100.00
3917;BME280;1973;50.518;7.318;2023-06-10T00:44:10;100665.72;;;18.54;100.00
3917;BME280;1973;50.518;7.318;2023-06-10T00:46:37;100662.59;;;18.51;100.00
3917;BME280;1973;50.518;7.318;2023-06-10T00:49:04;100659.53;;;18.47;100.00
3917;BME280;1973;50.518;7.318;2023-06-10T00:51:31;100667.28;;;18.45;100.00
3917;BME280;1973;50.518;7.318;2023-06-10T00:53:57;100674.81;;;18.39;100.00
3917;BME280;1973;50.518;7.318;2023-06-10T00:56:24;100678.97;;;18.37;100.00
3917;BME280;1973;50.518;7.318;2023-06-10T00:58:51;100682.28;;;18.34;100.00
3917;BME280;1973;50.518;7.318;2023-06-10T01:01:18;100680.06;;;18.31;100.00
3917;BME280;1973;50.518;7.318;2023-06-10T01:03:46;100675.28;;;18.26;100.00
3917;BME280;1973;50.518;7.318;2023-06-10T01:06:18;100680.56;;;18.23;100.00
3917;BME280;1973;50.518;7.318;2023-06-10T01:08:52;100681.09;;;18.20;100.00
3917;BME280;1973;50.518;7.318;2023-06-10T01:11:28;100676.06;;;18.17;100.00
3917;BME280;1973;50.518;7.318;2023-06-10T01:13:56;100674.38;;;18.16;100.00
3917;BME280;1973;50.518;7.318;2023-06-10T01:16:24;100675.75;;;18.13;100.00
3917;BME280;1973;50.518;7.318;2023-06-10T01:18:51;100677.16;;;18.11;100.00
3917;BME280;1973;50.518;7.318;2023-06-10T01:21:20;100682.13;;;18.09;100.00
3917;BME280;1973;50.518;7.318;2023-06-10T01:23:47;100672.38;;;18.06;100.00
3917;BME280;1973;50.518;7.318;2023-06-10T01:26:15;100676.25;;;18.05;100.00
3917;BME280;1973;50.518;7.318;2023-06-10T01:28:49;100676.25;;;18.05;100.00
3917;BME280;1973;50.518;7.318;2023-06-10T01:34:08;100672.91;;;18.03;100.00
3917;BME280;1973;50.518;7.318;2023-06-10T01:36:35;100685.41;;;18.00;100.00
3917;BME280;1973;50.518;7.318;2023-06-10T01:39:04;100684.25;;;17.96;100.00
3917;BME280;1973;50.518;7.318;2023-06-10T01:41:31;100682.59;;;17.95;100.00
3917;BME280;1973;50.518;7.318;2023-06-10T01:43:58;100678.94;;;17.90;100.00
3917;BME280;1973;50.518;7.318;2023-06-10T01:46:25;100677.53;;;17.87;100.00
3917;BME280;1973;50.518;7.318;2023-06-10T01:48:52;100679.47;;;17.87;100.00
3917;BME280;1973;50.518;7.318;2023-06-10T01:51:18;100680.84;;;17.84;100.00
3917;BME280;1973;50.518;7.318;2023-06-10T01:53:45;100678.56;;;17.81;100.00
3917;BME280;1973;50.518;7.318;2023-06-10T01:56:11;100680.22;;;17.77;100.00
3917;BME280;1973;50.518;7.318;2023-06-10T01:58:46;100683.53;;;17.74;100.00
3917;BME280;1973;50.518;7.318;2023-06-10T02:01:13;100685.75;;;17.72;100.00
3917;BME280;1973;50.518;7.318;2023-06-10T02:03:40;100687.13;;;17.70;100.00
3917;BME280;1973;50.518;7.318;2023-06-10T02:06:07;100692.41;;;17.66;100.00
3917;BME280;1973;50.518;7.318;2023-06-10T02:08:33;100695.97;;;17.62;100.00
3917;BME280;1973;50.518;7.318;2023-06-10T02:11:00;100691.75;;;17.59;100.00
3917;BME280;1973;50.518;7.318;2023-06-10T02:13:26;100697.81;;;17.56;100.00
3917;BME280;1973;50.518;7.318;2023-06-10T02:15:53;100695.56;;;17.53;100.00
3917;BME280;1973;50.518;7.318;2023-06-10T02:18:20;100706.94;;;17.51;100.00
3917;BME280;1973;50.518;7.318;2023-06-10T02:20:47;100706.13;;;17.51;100.00
3917;BME280;1973;50.518;7.318;2023-06-10T02:23:13;100703.28;;;17.46;100.00
3917;BME280;1973;50.518;7.318;2023-06-10T02:25:40;100696.00;;;17.40;100.00
3917;BME280;1973;50.518;7.318;2023-06-10T02:28:07;100710.69;;;17.35;100.00
3917;BME280;1973;50.518;7.318;2023-06-10T02:30:33;100698.66;;;17.30;100.00
3917;BME280;1973;50.518;7.318;2023-06-10T02:33:00;100697.50;;;17.26;100.00
3917;BME280;1973;50.518;7.318;2023-06-10T02:35:27;100697.19;;;17.22;100.00
3917;BME280;1973;50.518;7.318;2023-06-10T02:37:54;100707.19;;;17.18;100.00
3917;BME280;1973;50.518;7.318;2023-06-10T02:40:20;100714.94;;;17.16;100.00
3917;BME280;1973;50.518;7.318;2023-06-10T02:42:47;100715.47;;;17.13;100.00
3917;BME280;1973;50.518;7.318;2023-06-10T02:45:13;100710.44;;;17.10;100.00
3917;BME280;1973;50.518;7.318;2023-06-10T02:47:41;100717.94;;;17.10;100.00
3917;BME280;1973;50.518;7.318;2023-06-10T02:50:08;100710.13;;;17.07;100.00
3917;BME280;1973;50.518;7.318;2023-06-10T02:52:34;100705.03;;;17.03;100.00
3917;BME280;1973;50.518;7.318;2023-06-10T02:55:01;100717.00;;;17.04;100.00
3917;BME280;1973;50.518;7.318;2023-06-10T02:57:27;100717.28;;;17.02;100.00
3917;BME280;1973;50.518;7.318;2023-06-10T02:59:54;100710.28;;;17.00;100.00
3917;BME280;1973;50.518;7.318;2023-06-10T03:02:20;100715.28;;;16.98;100.00
3917;BME280;1973;50.518;7.318;2023-06-10T03:04:47;100721.38;;;16.95;100.00
3917;BME280;1973;50.518;7.318;2023-06-10T03:07:16;100720.53;;;16.94;100.00
3917;BME280;1973;50.518;7.318;2023-06-10T03:09:44;100716.91;;;16.94;100.00
3917;BME280;1973;50.518;7.318;2023-06-10T03:12:11;100711.88;;;16.91;100.00
3917;BME280;1973;50.518;7.318;2023-06-10T03:14:37;100708.75;;;16.87;100.00
3917;BME280;1973;50.518;7.318;2023-06-10T03:17:05;100712.63;;;16.86;100.00
3917;BME280;1973;50.518;7.318;2023-06-10T03:19:32;100717.34;;;16.86;100.00
3917;BME280;1973;50.518;7.318;2023-06-10T03:22:12;100720.97;;;16.86;100.00
3917;BME280;1973;50.518;7.318;2023-06-10T03:24:39;100722.59;;;16.82;100.00
3917;BME280;1973;50.518;7.318;2023-06-10T03:27:10;100729.28;;;16.81;100.00
3917;BME280;1973;50.518;7.318;2023-06-10T03:29:37;100726.50;;;16.81;100.00
3917;BME280;1973;50.518;7.318;2023-06-10T03:32:04;100731.22;;;16.81;100.00
3917;BME280;1973;50.518;7.318;2023-06-10T03:34:31;100724.81;;;16.80;100.00
3917;BME280;1973;50.518;7.318;2023-06-10T03:36:58;100737.88;;;16.80;100.00
3917;BME280;1973;50.518;7.318;2023-06-10T03:39:25;100732.53;;;16.78;100.00
3917;BME280;1973;50.518;7.318;2023-06-10T03:41:52;100746.44;;;16.78;100.00
3917;BME280;1973;50.518;7.318;2023-06-10T03:44:18;100744.19;;;16.75;100.00
3917;BME280;1973;50.518;7.318;2023-06-10T03:46:45;100745.28;;;16.74;100.00
3917;BME280;1973;50.518;7.318;2023-06-10T03:49:11;100741.94;;;16.72;100.00
3917;BME280;1973;50.518;7.318;2023-06-10T03:51:38;100744.38;;;16.69;100.00
3917;BME280;1973;50.518;7.318;2023-06-10T03:54:05;100746.31;;;16.68;100.00
3917;BME280;1973;50.518;7.318;2023-06-10T03:56:31;100750.72;;;16.64;100.00
3917;BME280;1973;50.518;7.318;2023-06-10T03:58:58;100752.31;;;16.60;100.00
3917;BME280;1973;50.518;7.318;2023-06-10T04:01:25;100757.31;;;16.58;100.00
3917;BME280;1973;50.518;7.318;2023-06-10T04:03:52;100753.94;;;16.56;100.00
3917;BME280;1973;50.518;7.318;2023-06-10T04:06:20;100752.22;;;16.55;100.00
3917;BME280;1973;50.518;7.318;2023-06-10T04:08:48;100756.34;;;16.52;100.00
3917;BME280;1973;50.518;7.318;2023-06-10T04:11:15;100754.41;;;16.53;100.00
3917;BME280;1973;50.518;7.318;2023-06-10T04:13:42;100757.19;;;16.53;100.00
3917;BME280;1973;50.518;7.318;2023-06-10T04:16:08;100759.97;;;16.53;100.00
3917;BME280;1973;50.518;7.318;2023-06-10T04:18:35;100758.28;;;16.52;100.00
3917;BME280;1973;50.518;7.318;2023-06-10T04:21:02;100759.97;;;16.53;100.00
3917;BME280;1973;50.518;7.318;2023-06-10T04:23:28;100758.28;;;16.52;100.00
3917;BME280;1973;50.518;7.318;2023-06-10T04:25:55;100765.53;;;16.53;100.00
3917;BME280;1973;50.518;7.318;2023-06-10T04:28:22;100750.53;;;16.54;100.00
3917;BME280;1973;50.518;7.318;2023-06-10T04:30:48;100764.16;;;16.55;100.00
3917;BME280;1973;50.518;7.318;2023-06-10T04:33:15;100761.16;;;16.57;100.00
3917;BME280;1973;50.518;7.318;2023-06-10T04:35:41;100757.31;;;16.58;100.00
3917;BME280;1973;50.518;7.318;2023-06-10T04:38:08;100759.25;;;16.58;100.00
3917;BME280;1973;50.518;7.318;2023-06-10T04:40:35;100765.88;;;16.57;100.00
3917;BME280;1973;50.518;7.318;2023-06-10T04:43:01;100764.56;;;16.59;100.00
3917;BME280;1973;50.518;7.318;2023-06-10T04:45:28;100760.66;;;16.60;100.00
3917;BME280;1973;50.518;7.318;2023-06-10T04:47:56;100764.03;;;16.62;100.00
3917;BME280;1973;50.518;7.318;2023-06-10T04:50:24;100764.59;;;16.64;100.00
3917;BME280;1973;50.518;7.318;2023-06-10T04:52:51;100768.00;;;16.66;100.00
3917;BME280;1973;50.518;7.318;2023-06-10T04:55:17;100769.97;;;16.71;100.00
3917;BME280;1973;50.518;7.318;2023-06-10T04:57:44;100769.22;;;16.75;100.00
3917;BME280;1973;50.518;7.318;2023-06-10T05:00:11;100774.25;;;16.78;100.00
3917;BME280;1973;50.518;7.318;2023-06-10T05:02:38;100771.56;;;16.83;100.00
3917;BME280;1973;50.518;7.318;2023-06-10T05:05:04;100771.03;;;16.86;100.00
3917;BME280;1973;50.518;7.318;2023-06-10T05:07:32;100768.34;;;16.91;100.00
3917;BME280;1973;50.518;7.318;2023-06-10T05:09:59;100770.34;;;16.96;100.00
3917;BME280;1973;50.518;7.318;2023-06-10T05:12:26;100772.09;;;17.02;100.00
3917;BME280;1973;50.518;7.318;2023-06-10T05:14:52;100765.75;;;17.07;100.00
3917;BME280;1973;50.518;7.318;2023-06-10T05:17:19;100769.75;;;17.16;100.00
3917;BME280;1973;50.518;7.318;2023-06-10T05:19:45;100767.59;;;17.23;100.00
3917;BME280;1973;50.518;7.318;2023-06-10T05:22:13;100774.94;;;17.29;100.00
3917;BME280;1973;50.518;7.318;2023-06-10T05:24:40;100766.09;;;17.37;100.00
3917;BME280;1973;50.518;7.318;2023-06-10T05:27:07;100775.66;;;17.46;100.00
3917;BME280;1973;50.518;7.318;2023-06-10T05:29:35;100763.78;;;17.56;100.00
3917;BME280;1973;50.518;7.318;2023-06-10T05:32:01;100768.66;;;17.65;100.00
3917;BME280;1973;50.518;7.318;2023-06-10T05:34:30;100766.81;;;17.76;100.00
3917;BME280;1973;50.518;7.318;2023-06-10T05:36:57;100766.34;;;17.84;100.00
3917;BME280;1973;50.518;7.318;2023-06-10T05:39:23;100755.28;;;17.94;100.00
3917;BME280;1973;50.518;7.318;2023-06-10T05:41:50;100767.38;;;18.05;100.00
3917;BME280;1973;50.518;7.318;2023-06-10T05:44:16;100757.13;;;18.15;100.00
3917;BME280;1973;50.518;7.318;2023-06-10T05:46:43;100769.19;;;18.26;100.00
3917;BME280;1973;50.518;7.318;2023-06-10T05:49:09;100766.75;;;18.34;100.00
3917;BME280;1973;50.518;7.318;2023-06-10T05:51:36;100771.31;;;18.45;100.00
3917;BME280;1973;50.518;7.318;2023-06-10T05:54:04;100766.94;;;18.55;100.00
3917;BME280;1973;50.518;7.318;2023-06-10T05:56:30;100758.91;;;18.63;100.00
3917;BME280;1973;50.518;7.318;2023-06-10T05:58:57;100761.75;;;18.73;100.00
3917;BME280;1973;50.518;7.318;2023-06-10T06:01:23;100765.16;;;18.80;100.00
3917;BME280;1973;50.518;7.318;2023-06-10T06:03:50;100774.66;;;18.89;100.00
3917;BME280;1973;50.518;7.318;2023-06-10T06:06:16;100759.66;;;19.01;100.00
3917;BME280;1973;50.518;7.318;2023-06-10T06:08:43;100752.44;;;19.10;100.00
3917;BME280;1973;50.518;7.318;2023-06-10T06:11:10;100749.13;;;19.18;100.00
3917;BME280;1973;50.518;7.318;2023-06-10T06:13:36;100750.00;;;19.28;100.00
3917;BME280;1973;50.518;7.318;2023-06-10T06:16:03;100747.50;;;19.37;100.00
3917;BME280;1973;50.518;7.318;2023-06-10T06:18:29;100744.22;;;19.45;100.00
3917;BME280;1973;50.518;7.318;2023-06-10T06:20:56;100745.38;;;19.54;100.00
3917;BME280;1973;50.518;7.318;2023-06-10T06:23:22;100755.44;;;19.65;100.00
3917;BME280;1973;50.518;7.318;2023-06-10T06:25:49;100756.84;;;19.73;100.00
3917;BME280;1973;50.518;7.318;2023-06-10T06:28:16;100755.75;;;19.84;100.00
3917;BME280;1973;50.518;7.318;2023-06-10T06:30:42;100752.09;;;19.93;100.00
3917;BME280;1973;50.518;7.318;2023-06-10T06:33:09;100749.59;;;20.02;100.00
3917;BME280;1973;50.518;7.318;2023-06-10T06:35:35;100755.19;;;20.12;100.00
3917;BME280;1973;50.518;7.318;2023-06-10T06:38:04;100760.22;;;20.20;100.00
3917;BME280;1973;50.518;7.318;2023-06-10T06:40:31;100761.34;;;20.29;100.00
3917;BME280;1973;50.518;7.318;2023-06-10T06:42:57;100760.53;;;20.39;100.00
3917;BME280;1973;50.518;7.318;2023-06-10T06:45:24;100754.91;;;20.49;100.00
3917;BME280;1973;50.518;7.318;2023-06-10T06:47:50;100764.94;;;20.60;100.00
3917;BME280;1973;50.518;7.318;2023-06-10T06:50:17;100766.88;;;20.70;100.00
3917;BME280;1973;50.518;7.318;2023-06-10T06:52:44;100763.25;;;20.79;100.00
3917;BME280;1973;50.518;7.318;2023-06-10T06:55:11;100760.97;;;20.86;100.00
3917;BME280;1973;50.518;7.318;2023-06-10T06:57:38;100762.03;;;20.96;100.00
3917;BME280;1973;50.518;7.318;2023-06-10T07:00:06;100753.91;;;21.04;100.00
3917;BME280;1973;50.518;7.318;2023-06-10T07:02:35;100755.31;;;21.12;100.00
3917;BME280;1973;50.518;7.318;2023-06-10T07:05:02;100752.44;;;21.22;100.00
3917;BME280;1973;50.518;7.318;2023-06-10T07:07:29;100743.19;;;21.31;100.00
3917;BME280;1973;50.518;7.318;2023-06-10T07:09:56;100749.00;;;21.40;100.00
3917;BME280;1973;50.518;7.318;2023-06-10T07:12:22;100748.97;;;21.50;100.00
3917;BME280;1973;50.518;7.318;2023-06-10T07:14:51;100753.06;;;21.63;100.00
3917;BME280;1973;50.518;7.318;2023-06-10T07:17:17;100756.63;;;21.73;100.00
3917;BME280;1973;50.518;7.318;2023-06-10T07:19:45;100751.50;;;21.85;100.00
3917;BME280;1973;50.518;7.318;2023-06-10T07:22:12;100747.81;;;21.95;100.00
3917;BME280;1973;50.518;7.318;2023-06-10T07:24:38;100749.72;;;22.05;99.63
3917;BME280;1973;50.518;7.318;2023-06-10T07:27:05;100756.34;;;22.14;96.52
3917;BME280;1973;50.518;7.318;2023-06-10T07:29:32;100749.00;;;22.23;92.01
3917;BME280;1973;50.518;7.318;2023-06-10T07:31:59;100742.16;;;22.34;93.08
3917;BME280;1973;50.518;7.318;2023-06-10T07:34:25;100749.34;;;22.45;92.32
3917;BME280;1973;50.518;7.318;2023-06-10T07:36:52;100743.63;;;22.55;89.82
3917;BME280;1973;50.518;7.318;2023-06-10T07:39:18;100749.41;;;22.69;92.11
3917;BME280;1973;50.518;7.318;2023-06-10T07:41:45;100750.16;;;22.79;90.24
3917;BME280;1973;50.518;7.318;2023-06-10T07:44:11;100746.91;;;22.91;87.62
3917;BME280;1973;50.518;7.318;2023-06-10T07:46:38;100743.66;;;23.03;86.39
3917;BME280;1973;50.518;7.318;2023-06-10T07:49:04;100749.47;;;23.11;83.35
3917;BME280;1973;50.518;7.318;2023-06-10T07:51:31;100751.31;;;23.21;81.55
3917;BME280;1973;50.518;7.318;2023-06-10T07:53:57;100734.09;;;23.27;79.42
3917;BME280;1973;50.518;7.318;2023-06-10T07:56:24;100738.72;;;23.37;78.78
3917;BME280;1973;50.518;7.318;2023-06-10T07:58:52;100739.78;;;23.46;76.91
3917;BME280;1973;50.518;7.318;2023-06-10T08:01:19;100747.81;;;23.53;74.70
3917;BME280;1973;50.518;7.318;2023-06-10T08:03:45;100744.84;;;23.63;73.36
3917;BME280;1973;50.518;7.318;2023-06-10T08:06:12;100747.28;;;23.69;72.33
3917;BME280;1973;50.518;7.318;2023-06-10T08:08:39;100741.59;;;23.74;71.42
3917;BME280;1973;50.518;7.318;2023-06-10T08:11:13;100740.91;;;23.83;69.78
3917;BME280;1973;50.518;7.318;2023-06-10T08:13:40;100747.59;;;23.87;69.60
3917;BME280;1973;50.518;7.318;2023-06-10T08:16:06;100752.84;;;23.93;68.35
3917;BME280;1973;50.518;7.318;2023-06-10T08:18:33;100746.19;;;24.03;67.37
3917;BME280;1973;50.518;7.318;2023-06-10T08:21:00;100748.31;;;24.11;66.63
3917;BME280;1973;50.518;7.318;2023-06-10T08:23:27;100742.66;;;24.16;64.80
3917;BME280;1973;50.518;7.318;2023-06-10T08:25:53;100746.19;;;24.21;63.83
3917;BME280;1973;50.518;7.318;2023-06-10T08:28:20;100747.78;;;24.28;63.03
3917;BME280;1973;50.518;7.318;2023-06-10T08:30:46;100747.56;;;24.24;61.42
3917;BME280;1973;50.518;7.318;2023-06-10T08:33:13;100750.81;;;24.31;61.11
3917;BME280;1973;50.518;7.318;2023-06-10T08:35:39;100748.34;;;24.43;61.25
3917;BME280;1973;50.518;7.318;2023-06-10T08:38:06;100734.69;;;24.50;61.32
3917;BME280;1973;50.518;7.318;2023-06-10T08:40:34;100732.00;;;24.59;61.06
3917;BME280;1973;50.518;7.318;2023-06-10T08:43:06;100733.78;;;24.68;58.58
3917;BME280;1973;50.518;7.318;2023-06-10T08:45:36;100735.38;;;24.75;58.96
3917;BME280;1973;50.518;7.318;2023-06-10T08:48:04;100736.88;;;24.86;59.16
3917;BME280;1973;50.518;7.318;2023-06-10T08:50:36;100732.06;;;25.00;59.64
3917;BME280;1973;50.518;7.318;2023-06-10T08:53:07;100731.75;;;25.15;58.23
3917;BME280;1973;50.518;7.318;2023-06-10T08:55:36;100736.66;;;25.23;56.98
3917;BME280;1973;50.518;7.318;2023-06-10T08:58:04;100729.94;;;25.33;57.17
3917;BME280;1973;50.518;7.318;2023-06-10T09:00:31;100732.22;;;25.44;55.88
3917;BME280;1973;50.518;7.318;2023-06-10T09:02:58;100730.38;;;25.53;54.43
3917;BME280;1973;50.518;7.318;2023-06-10T09:05:33;100730.44;;;25.62;53.67
3917;BME280;1973;50.518;7.318;2023-06-10T09:08:00;100723.59;;;25.77;54.53
3917;BME280;1973;50.518;7.318;2023-06-10T09:10:27;100731.50;;;25.88;53.22
3917;BME280;1973;50.518;7.318;2023-06-10T09:12:54;100709.50;;;25.99;52.87
3917;BME280;1973;50.518;7.318;2023-06-10T09:15:20;100706.94;;;26.11;52.94
3917;BME280;1973;50.518;7.318;2023-06-10T09:17:47;100703.88;;;26.21;52.26
3917;BME280;1973;50.518;7.318;2023-06-10T09:20:14;100704.78;;;26.30;51.85
3917;BME280;1973;50.518;7.318;2023-06-10T09:22:42;100704.97;;;26.34;51.12
3917;BME280;1973;50.518;7.318;2023-06-10T09:25:11;100702.56;;;26.49;51.66
3917;BME280;1973;50.518;7.318;2023-06-10T09:30:27;100688.75;;;26.79;49.11
3917;BME280;1973;50.518;7.318;2023-06-10T09:32:55;100684.31;;;26.86;49.99
3917;BME280;1973;50.518;7.318;2023-06-10T09:35:27;100685.34;;;26.99;49.02
3917;BME280;1973;50.518;7.318;2023-06-10T09:37:58;100684.03;;;27.14;49.44
3917;BME280;1973;50.518;7.318;2023-06-10T09:40:26;100687.06;;;27.26;49.41
3917;BME280;1973;50.518;7.318;2023-06-10T09:42:58;100685.06;;;27.35;48.26
3917;BME280;1973;50.518;7.318;2023-06-10T09:45:32;100682.63;;;27.50;46.66
3917;BME280;1973;50.518;7.318;2023-06-10T09:47:59;100677.47;;;27.61;47.11
3917;BME280;1973;50.518;7.318;2023-06-10T09:50:26;100685.66;;;27.71;46.49
3917;BME280;1973;50.518;7.318;2023-06-10T09:52:53;100671.81;;;27.78;45.62
3917;BME280;1973;50.518;7.318;2023-06-10T09:55:19;100675.63;;;27.91;46.24
3917;BME280;1973;50.518;7.318;2023-06-10T09:57:49;100672.63;;;28.04;46.05
3917;BME280;1973;50.518;7.318;2023-06-10T10:00:16;100670.31;;;28.15;45.36
3917;BME280;1973;50.518;7.318;2023-06-10T10:02:51;100672.28;;;28.23;44.45
3917;BME280;1973;50.518;7.318;2023-06-10T10:05:20;100673.59;;;28.34;43.75
3917;BME280;1973;50.518;7.318;2023-06-10T10:07:48;100665.75;;;28.40;43.76
3917;BME280;1973;50.518;7.318;2023-06-10T10:10:16;100661.38;;;28.51;43.43
3917;BME280;1973;50.518;7.318;2023-06-10T10:12:46;100665.16;;;28.64;42.12
3917;BME280;1973;50.518;7.318;2023-06-10T10:15:12;100665.97;;;28.64;42.11
3917;BME280;1973;50.518;7.318;2023-06-10T10:17:42;100667.94;;;28.81;41.79
3917;BME280;1973;50.518;7.318;2023-06-10T10:20:13;100666.56;;;28.87;41.08
3917;BME280;1973;50.518;7.318;2023-06-10T10:22:43;100675.66;;;29.01;40.97
3917;BME280;1973;50.518;7.318;2023-06-10T10:25:11;100668.22;;;29.17;39.94
3917;BME280;1973;50.518;7.318;2023-06-10T10:27:51;100659.97;;;29.33;38.30
3917;BME280;1973;50.518;7.318;2023-06-10T10:30:20;100656.16;;;29.49;38.41
3917;BME280;1973;50.518;7.318;2023-06-10T10:33:31;100648.81;;;29.69;35.46
3917;BME280;1973;50.518;7.318;2023-06-10T10:36:00;100652.38;;;29.87;37.04
3917;BME280;1973;50.518;7.318;2023-06-10T10:38:28;100645.69;;;30.04;36.73
3917;BME280;1973;50.518;7.318;2023-06-10T10:40:55;100649.19;;;30.21;36.95
3917;BME280;1973;50.518;7.318;2023-06-10T10:43:26;100646.72;;;30.32;35.88
3917;BME280;1973;50.518;7.318;2023-06-10T10:46:09;100647.13;;;30.42;34.38
3917;BME280;1973;50.518;7.318;2023-06-10T10:48:38;100640.41;;;30.59;35.64
3917;BME280;1973;50.518;7.318;2023-06-10T10:51:05;100641.34;;;30.75;34.11
3917;BME280;1973;50.518;7.318;2023-06-10T10:53:31;100641.69;;;30.86;33.41
3917;BME280;1973;50.518;7.318;2023-06-10T10:56:12;100635.53;;;30.84;32.32
3917;BME280;1973;50.518;7.318;2023-06-10T10:58:40;100635.06;;;30.94;33.01
3917;BME280;1973;50.518;7.318;2023-06-10T11:01:14;100629.63;;;31.01;32.05
3917;BME280;1973;50.518;7.318;2023-06-10T11:03:45;100634.63;;;31.04;31.44
3917;BME280;1973;50.518;7.318;2023-06-10T11:06:14;100627.00;;;31.20;33.10
3917;BME280;1973;50.518;7.318;2023-06-10T11:16:28;100617.44;;;31.93;32.59
3917;BME280;1973;50.518;7.318;2023-06-10T11:18:56;100623.91;;;31.77;31.24
3917;BME280;1973;50.518;7.318;2023-06-10T11:21:24;100621.31;;;32.00;31.91
3917;BME280;1973;50.518;7.318;2023-06-10T11:23:57;100612.97;;;32.07;29.96
3917;BME280;1973;50.518;7.318;2023-06-10T11:31:44;100604.09;;;32.24;30.71
3917;BME280;1973;50.518;7.318;2023-06-10T11:34:12;100603.63;;;32.38;30.92
3917;BME280;1973;50.518;7.318;2023-06-10T11:36:41;100614.59;;;32.52;31.26
3917;BME280;1973;50.518;7.318;2023-06-10T11:39:09;100603.09;;;32.48;30.01
3917;BME280;1973;50.518;7.318;2023-06-10T11:41:37;100612.53;;;32.21;29.19
3917;BME280;1973;50.518;7.318;2023-06-10T11:44:12;100607.38;;;32.26;28.96
3917;BME280;1973;50.518;7.318;2023-06-10T11:46:42;100600.41;;;32.40;28.96
3917;BME280;1973;50.518;7.318;2023-06-10T11:49:09;100595.16;;;32.57;30.11
3917;BME280;1973;50.518;7.318;2023-06-10T11:51:37;100608.69;;;32.76;29.37
3917;BME280;1973;50.518;7.318;2023-06-10T11:54:06;100604.84;;;32.84;28.79
3917;BME280;1973;50.518;7.318;2023-06-10T11:56:34;100602.69;;;32.97;28.14
3917;BME280;1973;50.518;7.318;2023-06-10T11:59:04;100593.34;;;32.80;27.95
3917;BME280;1973;50.518;7.318;2023-06-10T12:01:33;100586.91;;;32.68;28.09
3917;BME280;1973;50.518;7.318;2023-06-10T12:04:06;100582.75;;;32.50;27.76
3917;BME280;1973;50.518;7.318;2023-06-10T12:06:44;100585.91;;;32.60;28.33
3917;BME280;1973;50.518;7.318;2023-06-10T12:11:58;100577.59;;;32.55;28.42
3917;BME280;1973;50.518;7.318;2023-06-10T12:14:57;100584.13;;;32.87;29.50
3917;BME280;1973;50.518;7.318;2023-06-10T12:19:59;100573.59;;;33.07;27.17
3917;BME280;1973;50.518;7.318;2023-06-10T12:22:26;100575.59;;;33.06;27.52
3917;BME280;1973;50.518;7.318;2023-06-10T12:25:03;100569.63;;;33.11;26.47
3917;BME280;1973;50.518;7.318;2023-06-10T12:27:31;100570.69;;;33.22;27.63
3917;BME280;1973;50.518;7.318;2023-06-10T12:29:58;100572.88;;;33.48;28.37
3917;BME280;1973;50.518;7.318;2023-06-10T12:32:44;100576.66;;;33.71;27.39
3917;BME280;1973;50.518;7.318;2023-06-10T12:35:21;100578.44;;;33.60;26.94
3917;BME280;1973;50.518;7.318;2023-06-10T12:37:58;100578.97;;;33.85;27.10
3917;BME280;1973;50.518;7.318;2023-06-10T12:40:33;100574.88;;;34.05;26.83
3917;BME280;1973;50.518;7.318;2023-06-10T12:43:02;100583.19;;;34.33;27.55
3917;BME280;1973;50.518;7.318;2023-06-10T12:45:33;100564.56;;;34.43;26.93
3917;BME280;1973;50.518;7.318;2023-06-10T12:48:21;100572.50;;;34.53;26.23
3917;BME280;1973;50.518;7.318;2023-06-10T12:50:52;100568.03;;;34.78;26.85
3917;BME280;1973;50.518;7.318;2023-06-10T12:53:19;100566.50;;;34.84;26.90
3917;BME280;1973;50.518;7.318;2023-06-10T12:55:47;100559.75;;;34.96;27.14
3917;BME280;1973;50.518;7.318;2023-06-10T12:58:13;100573.28;;;34.99;26.74
3917;BME280;1973;50.518;7.318;2023-06-10T13:00:40;100564.16;;;35.16;26.35
3917;BME280;1973;50.518;7.318;2023-06-10T13:03:09;100563.97;;;35.32;26.57
3917;BME280;1973;50.518;7.318;2023-06-10T13:05:36;100575.84;;;35.34;26.19
3917;BME280;1973;50.518;7.318;2023-06-10T13:08:06;100571.47;;;34.87;25.42
3917;BME280;1973;50.518;7.318;2023-06-10T13:10:33;100572.13;;;34.77;25.95
3917;BME280;1973;50.518;7.318;2023-06-10T13:13:01;100569.53;;;34.68;25.58
3917;BME280;1973;50.518;7.318;2023-06-10T13:15:29;100560.91;;;34.91;25.97
3917;BME280;1973;50.518;7.318;2023-06-10T13:17:55;100555.06;;;35.10;26.22
3917;BME280;1973;50.518;7.318;2023-06-10T13:20:22;100553.19;;;35.22;25.88
3917;BME280;1973;50.518;7.318;2023-06-10T13:22:48;100566.38;;;35.30;25.42
3917;BME280;1973;50.518;7.318;2023-06-10T13:25:16;100549.88;;;35.20;25.62
3917;BME280;1973;50.518;7.318;2023-06-10T13:27:42;100554.59;;;35.08;25.50
3917;BME280;1973;50.518;7.318;2023-06-10T13:30:10;100559.97;;;35.40;25.80
3917;BME280;1973;50.518;7.318;2023-06-10T13:32:37;100555.22;;;35.21;24.66